< < Back
Terminal Aerodrome Forecast


Current Version              Previous Versions:   1  2  3  4  5  6  7  8  9  

Terminal Aerodrome Forecast

260
FTUS44 KMRX 280527
TAFCHA
TAF
KCHA 280527Z 2806/0106 01007KT P6SM BKN120
     FM281000 01004KT P6SM SCT025 BKN100
     FM281800 VRB04KT P6SM SCT035 BKN120=



Latest METAR

157
SAUS80 KWBC 010256
MTRCHA
METAR KCHA 010253Z 17005KT 10SM FEW110 SCT250 08/M03 A3050 RMK AO2
SLP332 T00781028 51012


USA.gov is the U.S. government's official web portal to all federal, state and local government web resources and services.